sensor_id;sensor_type;location;lat;lon;timestamp;P1;durP1;ratioP1;P2;durP2;ratioP2
62580;SDS011;48640;48.770;9.148;2023-06-14T00:00:00;7.28;;;3.42;;
62580;SDS011;48640;48.770;9.148;2023-06-14T00:02:29;5.88;;;3.70;;
62580;SDS011;48640;48.770;9.148;2023-06-14T00:04:55;5.68;;;3.53;;
62580;SDS011;48640;48.770;9.148;2023-06-14T00:07:34;6.43;;;4.03;;
62580;SDS011;48640;48.770;9.148;2023-06-14T00:10:02;5.40;;;3.80;;
62580;SDS011;48640;48.770;9.148;2023-06-14T00:12:29;5.40;;;3.63;;
62580;SDS011;48640;48.770;9.148;2023-06-14T00:14:56;6.72;;;4.05;;
62580;SDS011;48640;48.770;9.148;2023-06-14T00:17:23;6.18;;;4.15;;
62580;SDS011;48640;48.770;9.148;2023-06-14T00:19:55;6.40;;;4.38;;
62580;SDS011;48640;48.770;9.148;2023-06-14T00:22:22;6.00;;;3.95;;
62580;SDS011;48640;48.770;9.148;2023-06-14T00:24:51;7.25;;;3.92;;
62580;SDS011;48640;48.770;9.148;2023-06-14T00:27:18;5.72;;;3.67;;
62580;SDS011;48640;48.770;9.148;2023-06-14T00:29:45;5.88;;;3.70;;
62580;SDS011;48640;48.770;9.148;2023-06-14T00:32:12;7.25;;;3.78;;
62580;SDS011;48640;48.770;9.148;2023-06-14T00:34:38;6.47;;;3.53;;
62580;SDS011;48640;48.770;9.148;2023-06-14T00:37:05;5.38;;;3.70;;
62580;SDS011;48640;48.770;9.148;2023-06-14T00:39:32;5.88;;;4.15;;
62580;SDS011;48640;48.770;9.148;2023-06-14T00:42:01;6.65;;;4.00;;
62580;SDS011;48640;48.770;9.148;2023-06-14T00:44:27;5.90;;;3.97;;
62580;SDS011;48640;48.770;9.148;2023-06-14T00:46:54;5.65;;;3.92;;
62580;SDS011;48640;48.770;9.148;2023-06-14T00:49:21;8.90;;;4.28;;
62580;SDS011;48640;48.770;9.148;2023-06-14T00:51:48;9.07;;;4.13;;
62580;SDS011;48640;48.770;9.148;2023-06-14T00:54:15;5.25;;;4.00;;
62580;SDS011;48640;48.770;9.148;2023-06-14T00:56:41;5.15;;;3.92;;
62580;SDS011;48640;48.770;9.148;2023-06-14T00:59:12;6.88;;;4.15;;
62580;SDS011;48640;48.770;9.148;2023-06-14T01:01:40;6.00;;;3.90;;
62580;SDS011;48640;48.770;9.148;2023-06-14T01:04:07;5.15;;;4.00;;
62580;SDS011;48640;48.770;9.148;2023-06-14T01:06:35;8.20;;;4.15;;
62580;SDS011;48640;48.770;9.148;2023-06-14T01:09:09;6.80;;;4.03;;
62580;SDS011;48640;48.770;9.148;2023-06-14T01:11:47;8.10;;;4.82;;
62580;SDS011;48640;48.770;9.148;2023-06-14T01:14:19;5.50;;;3.50;;
62580;SDS011;48640;48.770;9.148;2023-06-14T01:16:47;6.20;;;3.90;;
62580;SDS011;48640;48.770;9.148;2023-06-14T01:19:18;7.43;;;3.85;;
62580;SDS011;48640;48.770;9.148;2023-06-14T01:21:47;5.32;;;4.07;;
62580;SDS011;48640;48.770;9.148;2023-06-14T01:24:17;6.25;;;4.38;;
62580;SDS011;48640;48.770;9.148;2023-06-14T01:26:48;7.68;;;5.13;;
62580;SDS011;48640;48.770;9.148;2023-06-14T01:29:20;5.10;;;3.95;;
62580;SDS011;48640;48.770;9.148;2023-06-14T01:31:50;5.90;;;3.80;;
62580;SDS011;48640;48.770;9.148;2023-06-14T01:34:17;6.25;;;4.03;;
62580;SDS011;48640;48.770;9.148;2023-06-14T01:36:44;7.70;;;4.38;;
62580;SDS011;48640;48.770;9.148;2023-06-14T01:39:11;5.15;;;3.75;;
62580;SDS011;48640;48.770;9.148;2023-06-14T01:41:42;5.28;;;4.00;;
62580;SDS011;48640;48.770;9.148;2023-06-14T01:44:10;6.97;;;4.68;;
62580;SDS011;48640;48.770;9.148;2023-06-14T01:46:40;6.05;;;4.35;;
62580;SDS011;48640;48.770;9.148;2023-06-14T01:49:08;6.70;;;3.72;;
62580;SDS011;48640;48.770;9.148;2023-06-14T01:51:35;5.30;;;3.70;;
62580;SDS011;48640;48.770;9.148;2023-06-14T01:54:01;5.72;;;4.00;;
62580;SDS011;48640;48.770;9.148;2023-06-14T01:56:28;4.97;;;3.70;;
62580;SDS011;48640;48.770;9.148;2023-06-14T01:58:57;5.85;;;3.53;;
62580;SDS011;48640;48.770;9.148;2023-06-14T02:01:23;6.28;;;4.25;;
62580;SDS011;48640;48.770;9.148;2023-06-14T02:03:51;6.53;;;3.60;;
62580;SDS011;48640;48.770;9.148;2023-06-14T02:06:18;5.97;;;3.58;;
62580;SDS011;48640;48.770;9.148;2023-06-14T02:08:45;5.30;;;3.65;;
62580;SDS011;48640;48.770;9.148;2023-06-14T02:11:12;5.15;;;3.35;;
62580;SDS011;48640;48.770;9.148;2023-06-14T02:13:38;9.15;;;4.00;;
62580;SDS011;48640;48.770;9.148;2023-06-14T02:16:07;6.63;;;4.00;;
62580;SDS011;48640;48.770;9.148;2023-06-14T02:18:33;6.88;;;3.92;;
62580;SDS011;48640;48.770;9.148;2023-06-14T02:21:00;7.18;;;3.58;;
62580;SDS011;48640;48.770;9.148;2023-06-14T02:23:27;7.00;;;3.70;;
62580;SDS011;48640;48.770;9.148;2023-06-14T02:25:54;5.93;;;3.60;;
62580;SDS011;48640;48.770;9.148;2023-06-14T02:28:21;6.20;;;4.15;;
62580;SDS011;48640;48.770;9.148;2023-06-14T02:30:48;6.72;;;3.97;;
62580;SDS011;48640;48.770;9.148;2023-06-14T02:33:16;6.60;;;3.70;;
62580;SDS011;48640;48.770;9.148;2023-06-14T02:35:43;5.28;;;3.72;;
62580;SDS011;48640;48.770;9.148;2023-06-14T02:38:09;5.35;;;3.53;;
62580;SDS011;48640;48.770;9.148;2023-06-14T02:40:36;8.38;;;4.60;;
62580;SDS011;48640;48.770;9.148;2023-06-14T02:43:03;5.25;;;3.63;;
62580;SDS011;48640;48.770;9.148;2023-06-14T02:45:30;5.22;;;3.45;;
62580;SDS011;48640;48.770;9.148;2023-06-14T02:47:57;5.57;;;3.88;;
62580;SDS011;48640;48.770;9.148;2023-06-14T02:50:25;9.60;;;4.40;;
62580;SDS011;48640;48.770;9.148;2023-06-14T02:52:53;6.00;;;3.78;;
62580;SDS011;48640;48.770;9.148;2023-06-14T02:55:20;5.93;;;3.97;;
62580;SDS011;48640;48.770;9.148;2023-06-14T02:57:47;5.97;;;4.03;;
62580;SDS011;48640;48.770;9.148;2023-06-14T03:00:14;6.95;;;3.75;;
62580;SDS011;48640;48.770;9.148;2023-06-14T03:02:41;7.60;;;3.50;;
62580;SDS011;48640;48.770;9.148;2023-06-14T03:05:09;5.72;;;4.45;;
62580;SDS011;48640;48.770;9.148;2023-06-14T03:07:37;8.63;;;4.53;;
62580;SDS011;48640;48.770;9.148;2023-06-14T03:10:06;8.27;;;3.63;;
62580;SDS011;48640;48.770;9.148;2023-06-14T03:12:34;6.15;;;4.32;;
62580;SDS011;48640;48.770;9.148;2023-06-14T03:15:01;5.43;;;3.72;;
62580;SDS011;48640;48.770;9.148;2023-06-14T03:17:29;6.72;;;4.32;;
62580;SDS011;48640;48.770;9.148;2023-06-14T03:19:58;6.90;;;4.00;;
62580;SDS011;48640;48.770;9.148;2023-06-14T03:22:25;7.13;;;3.80;;
62580;SDS011;48640;48.770;9.148;2023-06-14T03:24:54;5.80;;;3.80;;
62580;SDS011;48640;48.770;9.148;2023-06-14T03:27:21;5.38;;;3.70;;
62580;SDS011;48640;48.770;9.148;2023-06-14T03:29:48;6.03;;;3.88;;
62580;SDS011;48640;48.770;9.148;2023-06-14T03:32:15;6.25;;;3.85;;
62580;SDS011;48640;48.770;9.148;2023-06-14T03:34:42;6.28;;;3.47;;
62580;SDS011;48640;48.770;9.148;2023-06-14T03:37:10;8.35;;;3.70;;
62580;SDS011;48640;48.770;9.148;2023-06-14T03:39:37;6.00;;;3.70;;
62580;SDS011;48640;48.770;9.148;2023-06-14T03:42:12;6.57;;;4.38;;
62580;SDS011;48640;48.770;9.148;2023-06-14T03:44:39;5.25;;;3.63;;
62580;SDS011;48640;48.770;9.148;2023-06-14T03:47:06;6.88;;;4.70;;
62580;SDS011;48640;48.770;9.148;2023-06-14T03:49:33;5.80;;;3.80;;
62580;SDS011;48640;48.770;9.148;2023-06-14T03:52:00;7.32;;;4.00;;
62580;SDS011;48640;48.770;9.148;2023-06-14T03:54:27;8.05;;;4.50;;
62580;SDS011;48640;48.770;9.148;2023-06-14T03:56:54;6.65;;;3.63;;
62580;SDS011;48640;48.770;9.148;2023-06-14T03:59:23;6.75;;;3.92;;
62580;SDS011;48640;48.770;9.148;2023-06-14T04:01:50;10.52;;;4.43;;
62580;SDS011;48640;48.770;9.148;2023-06-14T04:04:18;8.85;;;4.95;;
62580;SDS011;48640;48.770;9.148;2023-06-14T04:06:46;7.25;;;4.28;;
62580;SDS011;48640;48.770;9.148;2023-06-14T04:09:13;6.53;;;4.28;;
62580;SDS011;48640;48.770;9.148;2023-06-14T04:11:40;8.90;;;5.32;;
62580;SDS011;48640;48.770;9.148;2023-06-14T04:14:07;5.38;;;3.70;;
62580;SDS011;48640;48.770;9.148;2023-06-14T04:16:35;5.20;;;4.10;;
62580;SDS011;48640;48.770;9.148;2023-06-14T04:19:01;6.72;;;4.38;;
62580;SDS011;48640;48.770;9.148;2023-06-14T04:21:28;8.00;;;3.83;;
62580;SDS011;48640;48.770;9.148;2023-06-14T04:23:55;8.77;;;4.68;;
62580;SDS011;48640;48.770;9.148;2023-06-14T04:26:22;7.25;;;4.70;;
62580;SDS011;48640;48.770;9.148;2023-06-14T04:28:54;7.10;;;4.15;;
62580;SDS011;48640;48.770;9.148;2023-06-14T04:31:21;5.80;;;4.20;;
62580;SDS011;48640;48.770;9.148;2023-06-14T04:33:51;7.38;;;4.20;;
62580;SDS011;48640;48.770;9.148;2023-06-14T04:36:20;5.90;;;3.83;;
62580;SDS011;48640;48.770;9.148;2023-06-14T04:38:47;5.82;;;4.35;;
62580;SDS011;48640;48.770;9.148;2023-06-14T04:41:14;7.60;;;4.50;;
62580;SDS011;48640;48.770;9.148;2023-06-14T04:43:41;5.90;;;4.50;;
62580;SDS011;48640;48.770;9.148;2023-06-14T04:46:08;11.00;;;4.70;;
62580;SDS011;48640;48.770;9.148;2023-06-14T04:48:36;8.35;;;4.63;;
62580;SDS011;48640;48.770;9.148;2023-06-14T04:51:05;8.35;;;4.55;;
62580;SDS011;48640;48.770;9.148;2023-06-14T04:53:32;5.68;;;4.45;;
62580;SDS011;48640;48.770;9.148;2023-06-14T04:55:59;7.63;;;4.90;;
62580;SDS011;48640;48.770;9.148;2023-06-14T04:58:27;4.90;;;3.67;;
62580;SDS011;48640;48.770;9.148;2023-06-14T05:00:54;8.10;;;3.63;;
62580;SDS011;48640;48.770;9.148;2023-06-14T05:03:24;12.25;;;4.30;;
62580;SDS011;48640;48.770;9.148;2023-06-14T05:05:51;6.35;;;4.15;;
62580;SDS011;48640;48.770;9.148;2023-06-14T05:08:20;8.77;;;3.95;;
62580;SDS011;48640;48.770;9.148;2023-06-14T05:13:15;6.70;;;4.38;;
62580;SDS011;48640;48.770;9.148;2023-06-14T05:15:42;7.80;;;4.28;;
62580;SDS011;48640;48.770;9.148;2023-06-14T05:18:09;6.60;;;4.50;;
62580;SDS011;48640;48.770;9.148;2023-06-14T05:20:36;5.72;;;4.32;;
62580;SDS011;48640;48.770;9.148;2023-06-14T05:23:03;7.03;;;4.57;;
62580;SDS011;48640;48.770;9.148;2023-06-14T05:25:31;10.30;;;4.30;;
62580;SDS011;48640;48.770;9.148;2023-06-14T05:27:58;7.75;;;4.70;;
62580;SDS011;48640;48.770;9.148;2023-06-14T05:30:25;6.38;;;4.05;;
62580;SDS011;48640;48.770;9.148;2023-06-14T05:32:52;6.90;;;4.25;;
62580;SDS011;48640;48.770;9.148;2023-06-14T05:35:20;8.35;;;5.53;;
62580;SDS011;48640;48.770;9.148;2023-06-14T05:37:48;9.15;;;4.65;;
62580;SDS011;48640;48.770;9.148;2023-06-14T05:40:15;6.85;;;4.20;;
62580;SDS011;48640;48.770;9.148;2023-06-14T05:42:44;8.70;;;4.05;;
62580;SDS011;48640;48.770;9.148;2023-06-14T05:45:10;6.72;;;3.78;;
62580;SDS011;48640;48.770;9.148;2023-06-14T05:47:37;6.70;;;3.30;;
62580;SDS011;48640;48.770;9.148;2023-06-14T05:50:05;5.53;;;3.60;;
62580;SDS011;48640;48.770;9.148;2023-06-14T05:52:33;7.13;;;3.85;;
62580;SDS011;48640;48.770;9.148;2023-06-14T05:55:00;12.75;;;7.75;;
62580;SDS011;48640;48.770;9.148;2023-06-14T05:57:27;6.03;;;3.60;;
62580;SDS011;48640;48.770;9.148;2023-06-14T05:59:55;5.60;;;3.17;;
62580;SDS011;48640;48.770;9.148;2023-06-14T06:02:22;6.38;;;3.30;;
62580;SDS011;48640;48.770;9.148;2023-06-14T06:04:49;5.05;;;3.72;;
62580;SDS011;48640;48.770;9.148;2023-06-14T06:07:16;6.90;;;3.92;;
62580;SDS011;48640;48.770;9.148;2023-06-14T06:09:43;4.55;;;3.85;;
62580;SDS011;48640;48.770;9.148;2023-06-14T06:12:10;5.25;;;3.63;;
62580;SDS011;48640;48.770;9.148;2023-06-14T06:14:37;5.07;;;3.22;;
62580;SDS011;48640;48.770;9.148;2023-06-14T06:17:05;7.22;;;3.40;;
62580;SDS011;48640;48.770;9.148;2023-06-14T06:19:32;6.53;;;3.72;;
62580;SDS011;48640;48.770;9.148;2023-06-14T06:21:59;4.43;;;3.17;;
62580;SDS011;48640;48.770;9.148;2023-06-14T06:24:25;6.18;;;3.25;;
62580;SDS011;48640;48.770;9.148;2023-06-14T06:26:52;6.18;;;3.88;;
62580;SDS011;48640;48.770;9.148;2023-06-14T06:29:19;8.13;;;3.92;;
62580;SDS011;48640;48.770;9.148;2023-06-14T06:31:46;4.90;;;3.38;;
62580;SDS011;48640;48.770;9.148;2023-06-14T06:34:14;4.72;;;3.63;;
62580;SDS011;48640;48.770;9.148;2023-06-14T06:36:41;6.90;;;3.90;;
62580;SDS011;48640;48.770;9.148;2023-06-14T06:39:08;6.28;;;3.80;;
62580;SDS011;48640;48.770;9.148;2023-06-14T06:41:35;7.05;;;3.78;;
62580;SDS011;48640;48.770;9.148;2023-06-14T06:44:04;4.55;;;3.10;;
62580;SDS011;48640;48.770;9.148;2023-06-14T06:46:31;7.43;;;3.58;;
62580;SDS011;48640;48.770;9.148;2023-06-14T06:48:58;6.03;;;3.97;;
62580;SDS011;48640;48.770;9.148;2023-06-14T06:51:27;5.63;;;3.83;;
62580;SDS011;48640;48.770;9.148;2023-06-14T06:53:53;5.40;;;3.60;;
62580;SDS011;48640;48.770;9.148;2023-06-14T06:56:20;5.72;;;3.78;;
62580;SDS011;48640;48.770;9.148;2023-06-14T06:58:48;5.03;;;3.33;;
62580;SDS011;48640;48.770;9.148;2023-06-14T07:01:15;5.80;;;3.33;;
62580;SDS011;48640;48.770;9.148;2023-06-14T07:03:41;6.47;;;3.50;;
62580;SDS011;48640;48.770;9.148;2023-06-14T07:06:08;5.45;;;3.50;;
62580;SDS011;48640;48.770;9.148;2023-06-14T07:08:37;6.13;;;3.78;;
62580;SDS011;48640;48.770;9.148;2023-06-14T07:11:04;6.03;;;3.45;;
62580;SDS011;48640;48.770;9.148;2023-06-14T07:13:31;6.63;;;4.13;;
62580;SDS011;48640;48.770;9.148;2023-06-14T07:15:58;6.25;;;3.22;;
62580;SDS011;48640;48.770;9.148;2023-06-14T07:18:26;5.28;;;3.33;;
62580;SDS011;48640;48.770;9.148;2023-06-14T07:20:53;6.13;;;3.80;;
62580;SDS011;48640;48.770;9.148;2023-06-14T07:23:21;5.22;;;3.60;;
62580;SDS011;48640;48.770;9.148;2023-06-14T07:25:49;4.45;;;3.63;;
62580;SDS011;48640;48.770;9.148;2023-06-14T07:28:16;18.70;;;4.23;;
62580;SDS011;48640;48.770;9.148;2023-06-14T07:30:43;5.68;;;3.60;;
62580;SDS011;48640;48.770;9.148;2023-06-14T07:33:10;5.40;;;3.53;;
62580;SDS011;48640;48.770;9.148;2023-06-14T07:35:37;7.18;;;3.85;;
62580;SDS011;48640;48.770;9.148;2023-06-14T07:38:04;4.95;;;3.22;;
62580;SDS011;48640;48.770;9.148;2023-06-14T07:40:30;9.15;;;4.00;;
62580;SDS011;48640;48.770;9.148;2023-06-14T07:42:59;7.72;;;3.45;;
62580;SDS011;48640;48.770;9.148;2023-06-14T07:45:26;6.03;;;3.15;;
62580;SDS011;48640;48.770;9.148;2023-06-14T07:47:53;4.90;;;3.10;;
62580;SDS011;48640;48.770;9.148;2023-06-14T07:50:20;4.50;;;3.00;;
62580;SDS011;48640;48.770;9.148;2023-06-14T07:52:47;5.10;;;3.50;;
62580;SDS011;48640;48.770;9.148;2023-06-14T07:55:14;6.80;;;3.45;;
62580;SDS011;48640;48.770;9.148;2023-06-14T07:57:41;5.13;;;3.10;;
62580;SDS011;48640;48.770;9.148;2023-06-14T08:00:11;6.43;;;3.30;;
62580;SDS011;48640;48.770;9.148;2023-06-14T08:02:40;5.80;;;3.15;;
62580;SDS011;48640;48.770;9.148;2023-06-14T08:05:07;4.38;;;2.88;;
62580;SDS011;48640;48.770;9.148;2023-06-14T08:07:35;5.97;;;3.13;;
62580;SDS011;48640;48.770;9.148;2023-06-14T08:10:02;7.15;;;3.08;;
62580;SDS011;48640;48.770;9.148;2023-06-14T08:12:29;5.95;;;3.20;;
62580;SDS011;48640;48.770;9.148;2023-06-14T08:14:56;6.57;;;3.35;;
62580;SDS011;48640;48.770;9.148;2023-06-14T08:17:24;5.13;;;3.47;;
62580;SDS011;48640;48.770;9.148;2023-06-14T08:19:51;5.90;;;3.75;;
62580;SDS011;48640;48.770;9.148;2023-06-14T08:22:19;3.50;;;2.85;;
62580;SDS011;48640;48.770;9.148;2023-06-14T08:24:46;4.85;;;3.20;;
62580;SDS011;48640;48.770;9.148;2023-06-14T08:27:13;14.68;;;3.67;;
62580;SDS011;48640;48.770;9.148;2023-06-14T08:29:40;6.38;;;3.63;;
62580;SDS011;48640;48.770;9.148;2023-06-14T08:32:08;7.47;;;3.27;;
62580;SDS011;48640;48.770;9.148;2023-06-14T08:34:36;7.25;;;3.85;;
62580;SDS011;48640;48.770;9.148;2023-06-14T08:37:03;4.38;;;3.35;;
62580;SDS011;48640;48.770;9.148;2023-06-14T08:39:31;4.68;;;3.58;;
62580;SDS011;48640;48.770;9.148;2023-06-14T08:41:58;12.13;;;4.43;;
62580;SDS011;48640;48.770;9.148;2023-06-14T08:44:28;8.40;;;3.53;;
62580;SDS011;48640;48.770;9.148;2023-06-14T08:46:55;7.90;;;4.10;;
62580;SDS011;48640;48.770;9.148;2023-06-14T08:49:23;5.65;;;3.58;;
62580;SDS011;48640;48.770;9.148;2023-06-14T08:51:54;4.93;;;3.10;;
62580;SDS011;48640;48.770;9.148;2023-06-14T08:54:24;6.35;;;3.30;;
62580;SDS011;48640;48.770;9.148;2023-06-14T08:56:52;10.23;;;3.80;;
62580;SDS011;48640;48.770;9.148;2023-06-14T08:59:22;7.15;;;3.40;;
62580;SDS011;48640;48.770;9.148;2023-06-14T09:01:51;6.97;;;3.33;;
62580;SDS011;48640;48.770;9.148;2023-06-14T09:04:19;6.47;;;3.30;;
62580;SDS011;48640;48.770;9.148;2023-06-14T09:06:46;5.38;;;3.35;;
62580;SDS011;48640;48.770;9.148;2023-06-14T09:09:19;7.30;;;3.42;;
62580;SDS011;48640;48.770;9.148;2023-06-14T09:11:48;4.43;;;3.80;;
62580;SDS011;48640;48.770;9.148;2023-06-14T09:14:15;5.37;;;3.23;;
62580;SDS011;48640;48.770;9.148;2023-06-14T09:16:43;6.47;;;3.60;;
62580;SDS011;48640;48.770;9.148;2023-06-14T09:19:13;5.80;;;2.92;;
62580;SDS011;48640;48.770;9.148;2023-06-14T09:21:47;5.57;;;3.47;;
62580;SDS011;48640;48.770;9.148;2023-06-14T09:24:14;5.03;;;3.50;;
62580;SDS011;48640;48.770;9.148;2023-06-14T09:26:42;6.70;;;3.38;;
62580;SDS011;48640;48.770;9.148;2023-06-14T09:29:09;4.57;;;3.20;;
62580;SDS011;48640;48.770;9.148;2023-06-14T09:31:36;5.28;;;2.83;;
62580;SDS011;48640;48.770;9.148;2023-06-14T09:34:03;6.93;;;3.38;;
62580;SDS011;48640;48.770;9.148;2023-06-14T09:36:31;6.90;;;3.40;;
62580;SDS011;48640;48.770;9.148;2023-06-14T09:38:59;5.20;;;2.95;;
62580;SDS011;48640;48.770;9.148;2023-06-14T09:41:31;8.93;;;3.45;;
62580;SDS011;48640;48.770;9.148;2023-06-14T09:44:00;6.50;;;3.15;;
62580;SDS011;48640;48.770;9.148;2023-06-14T09:46:28;5.57;;;3.75;;
62580;SDS011;48640;48.770;9.148;2023-06-14T09:48:56;7.35;;;3.88;;
62580;SDS011;48640;48.770;9.148;2023-06-14T09:51:23;7.55;;;3.33;;
62580;SDS011;48640;48.770;9.148;2023-06-14T09:53:51;5.72;;;3.10;;
62580;SDS011;48640;48.770;9.148;2023-06-14T09:56:21;8.05;;;3.08;;
62580;SDS011;48640;48.770;9.148;2023-06-14T09:58:54;4.82;;;3.17;;
62580;SDS011;48640;48.770;9.148;2023-06-14T10:01:24;6.57;;;3.05;;
62580;SDS011;48640;48.770;9.148;2023-06-14T10:03:52;6.63;;;3.38;;
62580;SDS011;48640;48.770;9.148;2023-06-14T10:06:25;5.57;;;3.40;;
62580;SDS011;48640;48.770;9.148;2023-06-14T10:08:55;5.72;;;2.88;;
62580;SDS011;48640;48.770;9.148;2023-06-14T10:11:24;4.82;;;3.60;;
62580;SDS011;48640;48.770;9.148;2023-06-14T10:13:52;6.60;;;3.20;;
62580;SDS011;48640;48.770;9.148;2023-06-14T10:16:22;5.00;;;2.90;;
62580;SDS011;48640;48.770;9.148;2023-06-14T10:18:58;5.05;;;3.40;;
62580;SDS011;48640;48.770;9.148;2023-06-14T10:21:32;6.00;;;3.45;;
62580;SDS011;48640;48.770;9.148;2023-06-14T10:24:05;4.57;;;2.88;;
62580;SDS011;48640;48.770;9.148;2023-06-14T10:26:35;6.15;;;3.00;;
62580;SDS011;48640;48.770;9.148;2023-06-14T10:29:16;5.93;;;2.80;;
62580;SDS011;48640;48.770;9.148;2023-06-14T10:31:47;7.57;;;3.22;;
62580;SDS011;48640;48.770;9.148;2023-06-14T10:34:21;4.72;;;3.15;;
62580;SDS011;48640;48.770;9.148;2023-06-14T10:37:04;4.43;;;3.10;;
62580;SDS011;48640;48.770;9.148;2023-06-14T10:39:33;6.80;;;3.33;;
62580;SDS011;48640;48.770;9.148;2023-06-14T10:42:05;9.50;;;3.03;;
62580;SDS011;48640;48.770;9.148;2023-06-14T10:44:44;4.68;;;3.03;;
62580;SDS011;48640;48.770;9.148;2023-06-14T10:47:26;7.82;;;3.45;;
62580;SDS011;48640;48.770;9.148;2023-06-14T10:49:53;6.93;;;2.97;;
62580;SDS011;48640;48.770;9.148;2023-06-14T10:52:22;5.00;;;3.20;;
62580;SDS011;48640;48.770;9.148;2023-06-14T10:55:04;6.65;;;3.75;;
62580;SDS011;48640;48.770;9.148;2023-06-14T10:57:34;5.95;;;3.05;;
62580;SDS011;48640;48.770;9.148;2023-06-14T11:00:02;4.82;;;3.30;;
62580;SDS011;48640;48.770;9.148;2023-06-14T11:05:50;4.97;;;3.13;;
62580;SDS011;48640;48.770;9.148;2023-06-14T11:08:23;3.97;;;2.75;;
62580;SDS011;48640;48.770;9.148;2023-06-14T11:10:59;5.13;;;2.85;;
62580;SDS011;48640;48.770;9.148;2023-06-14T11:13:28;5.07;;;3.10;;
62580;SDS011;48640;48.770;9.148;2023-06-14T11:15:55;5.50;;;2.70;;
62580;SDS011;48640;48.770;9.148;2023-06-14T11:18:24;4.05;;;2.65;;
62580;SDS011;48640;48.770;9.148;2023-06-14T11:20:52;8.25;;;3.15;;
62580;SDS011;48640;48.770;9.148;2023-06-14T11:23:20;5.10;;;3.20;;
62580;SDS011;48640;48.770;9.148;2023-06-14T11:25:49;5.53;;;3.03;;
62580;SDS011;48640;48.770;9.148;2023-06-14T11:28:16;4.15;;;2.97;;
62580;SDS011;48640;48.770;9.148;2023-06-14T11:30:44;4.67;;;2.40;;
62580;SDS011;48640;48.770;9.148;2023-06-14T11:33:11;6.63;;;3.03;;
62580;SDS011;48640;48.770;9.148;2023-06-14T11:35:44;6.47;;;2.83;;
62580;SDS011;48640;48.770;9.148;2023-06-14T11:38:11;5.45;;;3.42;;
62580;SDS011;48640;48.770;9.148;2023-06-14T11:40:39;6.10;;;3.17;;
62580;SDS011;48640;48.770;9.148;2023-06-14T11:43:05;6.35;;;2.92;;
62580;SDS011;48640;48.770;9.148;2023-06-14T11:45:32;5.30;;;3.20;;
62580;SDS011;48640;48.770;9.148;2023-06-14T11:48:00;5.65;;;3.17;;
62580;SDS011;48640;48.770;9.148;2023-06-14T11:50:27;4.88;;;3.35;;
62580;SDS011;48640;48.770;9.148;2023-06-14T11:52:55;4.70;;;3.08;;
62580;SDS011;48640;48.770;9.148;2023-06-14T11:55:24;5.30;;;2.75;;
62580;SDS011;48640;48.770;9.148;2023-06-14T11:57:53;5.18;;;3.10;;
62580;SDS011;48640;48.770;9.148;2023-06-14T12:00:23;7.68;;;3.42;;
62580;SDS011;48640;48.770;9.148;2023-06-14T12:02:52;4.57;;;3.20;;
62580;SDS011;48640;48.770;9.148;2023-06-14T12:05:20;5.60;;;3.00;;
62580;SDS011;48640;48.770;9.148;2023-06-14T12:07:47;6.13;;;2.92;;
62580;SDS011;48640;48.770;9.148;2023-06-14T12:10:16;5.38;;;2.70;;
62580;SDS011;48640;48.770;9.148;2023-06-14T12:12:43;4.40;;;3.00;;
62580;SDS011;48640;48.770;9.148;2023-06-14T12:15:10;3.45;;;2.70;;
62580;SDS011;48640;48.770;9.148;2023-06-14T12:17:37;5.35;;;3.92;;
62580;SDS011;48640;48.770;9.148;2023-06-14T12:20:07;9.60;;;3.72;;
62580;SDS011;48640;48.770;9.148;2023-06-14T12:22:39;4.82;;;2.95;;
62580;SDS011;48640;48.770;9.148;2023-06-14T12:25:24;4.82;;;2.85;;
62580;SDS011;48640;48.770;9.148;2023-06-14T12:27:56;4.07;;;2.78;;
62580;SDS011;48640;48.770;9.148;2023-06-14T12:30:23;5.43;;;2.70;;
62580;SDS011;48640;48.770;9.148;2023-06-14T12:32:50;4.95;;;2.78;;
62580;SDS011;48640;48.770;9.148;2023-06-14T12:35:17;5.97;;;2.78;;
62580;SDS011;48640;48.770;9.148;2023-06-14T12:37:44;4.63;;;2.60;;
62580;SDS011;48640;48.770;9.148;2023-06-14T12:40:11;6.25;;;3.70;;
62580;SDS011;48640;48.770;9.148;2023-06-14T12:42:40;5.20;;;2.90;;
62580;SDS011;48640;48.770;9.148;2023-06-14T12:45:07;3.90;;;2.53;;
62580;SDS011;48640;48.770;9.148;2023-06-14T12:47:35;5.22;;;2.88;;
62580;SDS011;48640;48.770;9.148;2023-06-14T12:50:02;5.72;;;3.13;;
62580;SDS011;48640;48.770;9.148;2023-06-14T12:52:29;6.18;;;3.15;;
62580;SDS011;48640;48.770;9.148;2023-06-14T12:54:56;3.90;;;2.65;;
62580;SDS011;48640;48.770;9.148;2023-06-14T12:57:23;4.60;;;2.80;;
62580;SDS011;48640;48.770;9.148;2023-06-14T12:59:51;5.28;;;3.33;;
62580;SDS011;48640;48.770;9.148;2023-06-14T13:02:19;6.03;;;3.05;;
62580;SDS011;48640;48.770;9.148;2023-06-14T13:04:47;5.53;;;2.65;;
62580;SDS011;48640;48.770;9.148;2023-06-14T13:07:14;6.47;;;2.97;;
62580;SDS011;48640;48.770;9.148;2023-06-14T13:09:41;4.63;;;2.63;;
62580;SDS011;48640;48.770;9.148;2023-06-14T13:12:08;4.05;;;2.60;;
62580;SDS011;48640;48.770;9.148;2023-06-14T13:14:37;5.60;;;2.35;;
62580;SDS011;48640;48.770;9.148;2023-06-14T13:17:05;4.78;;;2.65;;
62580;SDS011;48640;48.770;9.148;2023-06-14T13:19:32;4.47;;;2.75;;
62580;SDS011;48640;48.770;9.148;2023-06-14T13:21:59;5.18;;;3.08;;
62580;SDS011;48640;48.770;9.148;2023-06-14T13:24:26;4.97;;;2.78;;
62580;SDS011;48640;48.770;9.148;2023-06-14T13:26:53;5.70;;;3.13;;
62580;SDS011;48640;48.770;9.148;2023-06-14T13:29:20;7.03;;;3.15;;
62580;SDS011;48640;48.770;9.148;2023-06-14T13:31:47;6.05;;;3.40;;
62580;SDS011;48640;48.770;9.148;2023-06-14T13:34:15;4.65;;;2.70;;
62580;SDS011;48640;48.770;9.148;2023-06-14T13:36:42;4.30;;;3.03;;
62580;SDS011;48640;48.770;9.148;2023-06-14T13:39:09;5.90;;;2.83;;
62580;SDS011;48640;48.770;9.148;2023-06-14T13:41:37;7.05;;;3.55;;
62580;SDS011;48640;48.770;9.148;2023-06-14T13:44:04;4.97;;;2.58;;
62580;SDS011;48640;48.770;9.148;2023-06-14T13:46:30;4.50;;;3.00;;
62580;SDS011;48640;48.770;9.148;2023-06-14T13:48:57;4.32;;;2.90;;
62580;SDS011;48640;48.770;9.148;2023-06-14T13:51:27;6.10;;;2.45;;
62580;SDS011;48640;48.770;9.148;2023-06-14T13:53:54;6.07;;;3.28;;
62580;SDS011;48640;48.770;9.148;2023-06-14T13:56:20;4.03;;;2.70;;
62580;SDS011;48640;48.770;9.148;2023-06-14T13:58:49;4.07;;;2.65;;
62580;SDS011;48640;48.770;9.148;2023-06-14T14:01:16;6.40;;;3.30;;
62580;SDS011;48640;48.770;9.148;2023-06-14T14:03:44;4.30;;;2.80;;
62580;SDS011;48640;48.770;9.148;2023-06-14T14:06:12;4.65;;;2.85;;
62580;SDS011;48640;48.770;9.148;2023-06-14T14:08:40;5.78;;;2.92;;
62580;SDS011;48640;48.770;9.148;2023-06-14T14:11:08;4.28;;;3.30;;
62580;SDS011;48640;48.770;9.148;2023-06-14T14:13:35;6.75;;;2.60;;
62580;SDS011;48640;48.770;9.148;2023-06-14T14:16:03;4.22;;;2.80;;
62580;SDS011;48640;48.770;9.148;2023-06-14T14:18:30;4.97;;;3.45;;
62580;SDS011;48640;48.770;9.148;2023-06-14T14:20:57;4.03;;;2.55;;
62580;SDS011;48640;48.770;9.148;2023-06-14T14:23:25;6.70;;;3.10;;
62580;SDS011;48640;48.770;9.148;2023-06-14T14:25:54;4.60;;;3.30;;
62580;SDS011;48640;48.770;9.148;2023-06-14T14:28:21;5.20;;;2.97;;
62580;SDS011;48640;48.770;9.148;2023-06-14T14:30:48;5.93;;;2.72;;
62580;SDS011;48640;48.770;9.148;2023-06-14T14:33:15;4.32;;;2.92;;
62580;SDS011;48640;48.770;9.148;2023-06-14T14:35:42;5.68;;;3.67;;
62580;SDS011;48640;48.770;9.148;2023-06-14T14:38:10;5.85;;;3.30;;
62580;SDS011;48640;48.770;9.148;2023-06-14T14:40:37;5.03;;;3.00;;
62580;SDS011;48640;48.770;9.148;2023-06-14T14:43:06;5.57;;;3.22;;
62580;SDS011;48640;48.770;9.148;2023-06-14T14:45:33;5.53;;;3.53;;
62580;SDS011;48640;48.770;9.148;2023-06-14T14:48:00;3.97;;;2.90;;
62580;SDS011;48640;48.770;9.148;2023-06-14T14:50:28;4.40;;;3.15;;
62580;SDS011;48640;48.770;9.148;2023-06-14T14:52:55;5.60;;;3.35;;
62580;SDS011;48640;48.770;9.148;2023-06-14T14:55:22;5.78;;;3.00;;
62580;SDS011;48640;48.770;9.148;2023-06-14T14:57:49;7.40;;;3.42;;